Time;durP1;ratioP1;P1;durP2;ratioP2;P2;SDS_P1;SDS_P2;PMS_P1;PMS_P2;Temp;Humidity;BMP_temperature;BMP_pressure;BME280_temperature;BME280_humidity;BME280_pressure;Samples;Min_cycle;Max_cycle;Signal;HPM_P1;HPM_P2
2022/08/23 00:01:29;;;;;;;;;;;;;;;21.79;68.37;98862.78;1660357;85;20098;-69
2022/08/23 00:03:58;;;;;;;;;;;;;;;21.75;68.44;98862.47;1660924;85;20102;-69
2022/08/23 00:06:24;;;;;;;;;;;;;;;21.74;68.38;98863.56;1662972;85;20139;-69
2022/08/23 00:08:51;;;;;;;;;;;;;;;21.71;68.51;98864.06;1662871;85;20185;-71
2022/08/23 00:11:33;;;;;;;;;;;;;;;21.70;68.43;98866.48;1662906;85;21161;-70
2022/08/23 00:14:01;;;;;;;;;;;;;;;21.68;68.40;98867.28;1662672;85;20420;-70
2022/08/23 00:16:28;;;;;;;;;;;;;;;21.66;68.47;98868.61;1662969;85;20156;-69
2022/08/23 00:18:54;;;;;;;;;;;;;;;21.65;68.44;98872.37;1662379;85;20136;-71
2022/08/23 00:21:20;;;;;;;;;;;;;;;21.61;68.46;98875.33;1662976;85;20105;-70
2022/08/23 00:23:47;;;;;;;;;;;;;;;21.57;68.56;98882.31;1662776;85;21149;-70
2022/08/23 00:26:13;;;;;;;;;;;;;;;21.56;68.56;98879.34;1657062;85;20444;-72
2022/08/23 00:28:40;;;;;;;;;;;;;;;21.56;68.60;98882.88;1663041;85;20114;-68
2022/08/23 00:31:06;;;;;;;;;;;;;;;21.57;68.47;98881.78;1662939;85;20089;-69
2022/08/23 00:33:32;;;;;;;;;;;;;;;21.56;68.35;98884.75;1662918;85;20204;-68
2022/08/23 00:35:58;;;;;;;;;;;;;;;21.56;68.16;98889.64;1662602;85;21143;-69
2022/08/23 00:38:25;;;;;;;;;;;;;;;21.53;67.92;98891.50;1662015;85;20091;-68
2022/08/23 00:40:51;;;;;;;;;;;;;;;21.49;67.82;98894.41;1662268;85;20185;-68
2022/08/23 00:49:07;;;;;;;;;;;;;;;21.33;67.88;98901.55;1662491;85;22164;-68
2022/08/23 00:51:49;;;;;;;;;;;;;;;21.26;67.96;98899.58;1662161;85;20250;-70
2022/08/23 00:54:16;;;;;;;;;;;;;;;21.23;68.06;98895.20;1661932;85;20157;-69
2022/08/23 00:56:43;;;;;;;;;;;;;;;21.18;68.19;98902.72;1662924;85;20601;-69
2022/08/23 00:59:12;;;;;;;;;;;;;;;21.16;68.26;98896.75;1662942;85;20090;-69
2022/08/23 01:01:38;;;;;;;;;;;;;;;21.13;68.32;98899.96;1663002;85;21145;-69
2022/08/23 01:04:05;;;;;;;;;;;;;;;21.07;68.38;98900.95;1659879;85;20114;-69
2022/08/23 01:06:34;;;;;;;;;;;;;;;21.03;68.42;98905.22;1671108;84;20130;-71
2022/08/23 01:09:04;;;;;;;;;;;;;;;21.01;68.47;98901.95;1622079;87;20930;-69
2022/08/23 01:11:35;;;;;;;;;;;;;;;21.01;68.49;98901.13;1644447;86;20132;-69
2022/08/23 01:14:30;;;;;;;;;;;;;;;20.99;68.43;98895.95;1672158;84;21109;-72
2022/08/23 01:17:20;;;;;;;;;;;;;;;20.98;68.33;98896.22;1671284;84;20161;-68
2022/08/23 01:19:55;;;;;;;;;;;;;;;20.94;68.34;98895.36;1629827;86;20087;-68
2022/08/23 01:22:43;;;;;;;;;;;;;;;20.90;68.34;98894.23;1643689;86;20108;-67
2022/08/23 01:25:11;;;;;;;;;;;;;;;20.88;68.41;98897.70;1673229;84;20121;-67
2022/08/23 01:27:43;;;;;;;;;;;;;;;20.85;68.50;98892.83;1644549;86;20107;-69
2022/08/23 01:30:13;;;;;;;;;;;;;;;20.82;68.60;98891.97;1644449;86;20103;-68
2022/08/23 01:32:45;;;;;;;;;;;;;;;20.81;68.70;98896.26;1644290;86;20116;-68
2022/08/23 01:35:12;;;;;;;;;;;;;;;20.80;68.72;98907.62;1644297;86;20169;-70
2022/08/23 01:37:40;;;;;;;;;;;;;;;20.79;68.67;98905.98;1644341;86;20201;-68
2022/08/23 01:40:08;;;;;;;;;;;;;;;20.81;68.60;98904.36;1644546;86;21227;-69
2022/08/23 01:42:35;;;;;;;;;;;;;;;20.84;68.43;98913.33;1643899;86;20599;-67
2022/08/23 01:45:01;;;;;;;;;;;;;;;20.83;68.32;98911.72;1644660;86;20128;-68
2022/08/23 01:47:28;;;;;;;;;;;;;;;20.81;68.24;98910.59;1644122;86;20151;-68
2022/08/23 01:49:55;;;;;;;;;;;;;;;20.79;68.20;98907.86;1644873;86;20092;-68
2022/08/23 01:52:21;;;;;;;;;;;;;;;20.76;68.23;98904.30;1642626;86;21908;-68
2022/08/23 01:54:48;;;;;;;;;;;;;;;20.75;68.31;98901.33;1644372;86;20120;-68
2022/08/23 01:57:14;;;;;;;;;;;;;;;20.72;68.38;98911.28;1644534;86;20445;-71
2022/08/23 01:59:42;;;;;;;;;;;;;;;20.68;68.46;98902.84;1644445;86;20163;-69
2022/08/23 02:02:08;;;;;;;;;;;;;;;20.65;68.56;98907.95;1644339;86;20460;-67
2022/08/23 02:04:34;;;;;;;;;;;;;;;20.62;68.66;98907.09;1626048;87;21229;-68
2022/08/23 02:07:01;;;;;;;;;;;;;;;20.60;68.65;98908.67;1611375;87;20124;-68
2022/08/23 02:09:27;;;;;;;;;;;;;;;20.59;68.69;98907.58;1612050;87;20100;-68
2022/08/23 02:11:56;;;;;;;;;;;;;;;20.57;68.76;98909.16;1612372;87;20129;-67
2022/08/23 02:14:23;;;;;;;;;;;;;;;20.53;68.82;98908.56;1612410;87;20129;-70
2022/08/23 02:16:52;;;;;;;;;;;;;;;20.49;68.93;98908.23;1612225;87;21283;-67
2022/08/23 02:19:19;;;;;;;;;;;;;;;20.46;69.04;98910.10;1611785;87;20109;-69
2022/08/23 02:21:46;;;;;;;;;;;;;;;20.44;69.09;98912.20;1611998;87;20128;-69
2022/08/23 02:24:17;;;;;;;;;;;;;;;20.43;69.19;98913.81;1612437;87;20105;-68
2022/08/23 02:26:47;;;;;;;;;;;;;;;20.41;69.25;98907.85;1639911;86;20106;-69
2022/08/23 02:29:14;;;;;;;;;;;;;;;20.40;69.30;98908.38;1611734;87;21168;-68
2022/08/23 02:31:46;;;;;;;;;;;;;;;20.40;69.29;98906.20;1611528;87;20740;-68
2022/08/23 02:34:13;;;;;;;;;;;;;;;20.38;69.26;98913.22;1611728;87;20169;-69
2022/08/23 02:36:40;;;;;;;;;;;;;;;20.37;69.26;98906.69;1611894;87;20945;-72
2022/08/23 02:39:07;;;;;;;;;;;;;;;20.30;69.40;98906.88;1638566;86;20452;-69
2022/08/23 02:41:35;;;;;;;;;;;;;;;20.27;69.48;98908.72;1612605;87;21164;-72
2022/08/23 02:44:02;;;;;;;;;;;;;;;20.24;69.61;98905.97;1611603;87;20108;-69
2022/08/23 02:46:29;;;;;;;;;;;;;;;20.19;69.74;98907.73;1612259;87;20133;-71
2022/08/23 02:48:55;;;;;;;;;;;;;;;20.17;69.82;98922.03;1611617;87;20117;-69
2022/08/23 02:51:23;;;;;;;;;;;;;;;20.16;69.96;98912.27;1609403;87;20469;-71
2022/08/23 02:53:49;;;;;;;;;;;;;;;20.14;70.02;98908.48;1612524;87;21760;-70
2022/08/23 02:56:16;;;;;;;;;;;;;;;20.13;70.05;98910.06;1597892;87;20434;-73
2022/08/23 02:58:44;;;;;;;;;;;;;;;20.08;70.16;98905.92;1611960;87;20180;-70
2022/08/23 03:01:16;;;;;;;;;;;;;;;20.06;70.21;98915.64;1611785;87;20644;-70
2022/08/23 03:03:42;;;;;;;;;;;;;;;20.04;70.30;98911.55;1641262;85;20163;-70
2022/08/23 03:06:09;;;;;;;;;;;;;;;20.06;70.22;98912.11;1640112;86;21068;-71
2022/08/23 03:08:35;;;;;;;;;;;;;;;20.04;70.32;98916.42;1611797;87;20454;-70
2022/08/23 03:11:01;;;;;;;;;;;;;;;20.03;70.35;98924.75;1637071;86;20149;-70
2022/08/23 03:13:28;;;;;;;;;;;;;;;20.03;70.33;98926.09;1609362;89;20172;-69
2022/08/23 03:15:56;;;;;;;;;;;;;;;20.03;70.35;98930.14;1631933;86;20244;-69
2022/08/23 03:18:22;;;;;;;;;;;;;;;20.01;70.30;98934.45;1632283;86;21157;-69
2022/08/23 03:20:49;;;;;;;;;;;;;;;20.00;70.30;98930.10;1631737;86;20104;-68
2022/08/23 03:23:15;;;;;;;;;;;;;;;20.00;70.38;98925.23;1632494;86;20092;-70
2022/08/23 03:25:42;;;;;;;;;;;;;;;20.00;70.40;98927.41;1632604;86;20552;-69
2022/08/23 03:28:10;;;;;;;;;;;;;;;19.99;70.44;98929.01;1632033;86;20108;-69
2022/08/23 03:30:39;;;;;;;;;;;;;;;19.98;70.42;98931.41;1631281;86;21199;-69
2022/08/23 03:33:06;;;;;;;;;;;;;;;19.96;70.44;98934.37;1631495;86;20375;-71
2022/08/23 03:35:32;;;;;;;;;;;;;;;19.98;70.43;98939.51;1632685;86;20480;-70
2022/08/23 03:37:59;;;;;;;;;;;;;;;19.97;70.42;98940.03;1632601;86;20641;-71
2022/08/23 03:40:25;;;;;;;;;;;;;;;19.99;70.43;98946.56;1619069;86;20093;-67
2022/08/23 03:42:52;;;;;;;;;;;;;;;19.99;70.40;98944.69;1629252;86;21172;-68
2022/08/23 03:45:20;;;;;;;;;;;;;;;20.02;70.39;98946.87;1608632;88;20108;-68
2022/08/23 03:47:48;;;;;;;;;;;;;;;20.05;70.33;98953.70;1629944;86;20104;-68
2022/08/23 03:50:15;;;;;;;;;;;;;;;20.05;70.32;98948.30;1613840;86;20101;-69
2022/08/23 03:52:41;;;;;;;;;;;;;;;20.09;70.26;98948.08;1625729;86;20080;-70
2022/08/23 03:55:08;;;;;;;;;;;;;;;20.14;70.29;98947.64;1632651;86;21151;-70
2022/08/23 03:57:36;;;;;;;;;;;;;;;20.23;70.07;98956.16;1608145;88;20125;-68
2022/08/23 04:00:05;;;;;;;;;;;;;;;20.29;69.92;98957.89;1626675;86;20180;-67
2022/08/23 04:02:33;;;;;;;;;;;;;;;20.39;69.87;98962.66;1616879;86;20615;-67
2022/08/23 04:05:00;;;;;;;;;;;;;;;20.54;69.65;98962.90;1637616;86;20130;-70
2022/08/23 04:07:29;;;;;;;;;;;;;;;20.69;69.16;98954.49;1642628;86;21293;-68
2022/08/23 04:09:57;;;;;;;;;;;;;;;20.82;68.67;98956.84;1643270;86;20421;-69
2022/08/23 04:12:26;;;;;;;;;;;;;;;20.92;68.17;98959.69;1644266;86;20116;-68
2022/08/23 04:14:52;;;;;;;;;;;;;;;21.05;67.82;98957.68;1644165;86;20887;-68
2022/08/23 04:17:20;;;;;;;;;;;;;;;21.14;67.32;98963.81;1643803;86;20144;-71
2022/08/23 04:19:47;;;;;;;;;;;;;;;21.23;66.90;98965.00;1643302;86;21161;-68
2022/08/23 04:22:15;;;;;;;;;;;;;;;21.32;66.69;98966.73;1643823;86;20136;-69
2022/08/23 04:24:41;;;;;;;;;;;;;;;21.43;66.47;98960.39;1644307;86;20099;-69
2022/08/23 04:27:08;;;;;;;;;;;;;;;21.61;66.00;98969.53;1644264;86;20097;-69
2022/08/23 04:29:35;;;;;;;;;;;;;;;21.75;65.60;98973.45;1643398;86;20155;-71
2022/08/23 04:32:02;;;;;;;;;;;;;;;21.91;64.98;98969.88;1643344;86;21161;-70
2022/08/23 04:34:31;;;;;;;;;;;;;;;22.06;64.64;98974.61;1644364;86;20113;-70
2022/08/23 04:36:58;;;;;;;;;;;;;;;22.27;64.17;98975.61;1644020;86;20440;-68
2022/08/23 04:39:25;;;;;;;;;;;;;;;22.48;63.57;98980.13;1644159;86;20173;-68
2022/08/23 04:44:38;;;;;;;;;;;;;;;22.94;62.18;98984.86;1644206;86;21107;-68
2022/08/23 04:47:05;;;;;;;;;;;;;;;23.19;61.50;98984.17;1643447;86;20119;-68
2022/08/23 04:49:32;;;;;;;;;;;;;;;23.42;60.37;98976.98;1642805;86;20124;-70
2022/08/23 04:51:59;;;;;;;;;;;;;;;23.60;59.78;98979.22;1645622;86;20107;-69
2022/08/23 04:54:26;;;;;;;;;;;;;;;23.80;58.88;98981.20;1643758;86;20080;-68
2022/08/23 04:56:55;;;;;;;;;;;;;;;23.95;58.40;98985.30;1640165;86;21196;-70
2022/08/23 04:59:22;;;;;;;;;;;;;;;24.07;57.91;98985.03;1644162;86;20083;-69
2022/08/23 05:01:49;;;;;;;;;;;;;;;24.21;57.26;98991.62;1642952;86;20103;-71
2022/08/23 05:04:16;;;;;;;;;;;;;;;24.26;57.29;98989.73;1643839;86;20121;-70
2022/08/23 05:06:42;;;;;;;;;;;;;;;24.46;57.11;98985.65;1641036;86;20131;-72
2022/08/23 05:09:09;;;;;;;;;;;;;;;24.72;56.81;98986.45;1641955;86;21412;-69
2022/08/23 05:11:35;;;;;;;;;;;;;;;25.03;56.57;98986.70;1639770;86;20162;-69
2022/08/23 05:14:02;;;;;;;;;;;;;;;25.37;55.49;98982.00;1641472;86;20103;-68
2022/08/23 05:16:29;;;;;;;;;;;;;;;25.60;54.28;98980.02;1641848;86;20116;-69
2022/08/23 05:18:57;;;;;;;;;;;;;;;25.82;53.55;98985.89;1640443;86;20169;-67
2022/08/23 05:21:24;;;;;;;;;;;;;;;26.04;53.02;98988.22;1641199;86;21162;-68
2022/08/23 05:23:51;;;;;;;;;;;;;;;26.28;52.42;98989.19;1641547;86;20120;-68
2022/08/23 05:26:19;;;;;;;;;;;;;;;26.62;52.57;98997.38;1642275;86;20406;-68
2022/08/23 05:28:47;;;;;;;;;;;;;;;27.07;51.27;98996.95;1641675;86;20091;-67
2022/08/23 05:31:20;;;;;;;;;;;;;;;27.46;49.85;98992.17;1640681;86;20433;-69
2022/08/23 05:33:48;;;;;;;;;;;;;;;27.70;48.65;98988.59;1643650;86;21121;-69
2022/08/23 05:36:17;;;;;;;;;;;;;;;27.88;48.07;98991.35;1643389;86;20127;-68
2022/08/23 05:38:45;;;;;;;;;;;;;;;28.04;47.28;98996.08;1659811;86;20190;-70
2022/08/23 05:41:12;;;;;;;;;;;;;;;28.21;46.82;98994.20;1648400;86;20312;-68
2022/08/23 05:43:40;;;;;;;;;;;;;;;28.44;46.87;98990.01;1643914;86;20139;-68
2022/08/23 05:46:11;;;;;;;;;;;;;;;28.74;45.64;98990.06;1644695;86;21363;-69
2022/08/23 05:48:39;;;;;;;;;;;;;;;28.93;45.12;98988.09;1643887;86;20176;-71
2022/08/23 05:51:15;;;;;;;;;;;;;;;29.18;45.04;98986.23;1644795;86;20104;-70
2022/08/23 05:53:41;;;;;;;;;;;;;;;29.59;44.97;98988.20;1644566;86;20091;-69
2022/08/23 05:56:20;;;;;;;;;;;;;;;30.03;43.69;98989.73;1644602;86;20116;-70
2022/08/23 05:58:47;;;;;;;;;;;;;;;30.29;42.52;98989.95;1645347;86;21212;-71
2022/08/23 06:01:14;;;;;;;;;;;;;;;30.45;42.14;98990.66;1644762;86;20119;-68
2022/08/23 06:03:41;;;;;;;;;;;;;;;30.53;42.22;98984.42;1644005;86;20091;-68
2022/08/23 06:06:08;;;;;;;;;;;;;;;30.83;41.53;98984.78;1644320;86;20115;-69
2022/08/23 06:08:37;;;;;;;;;;;;;;;31.07;40.50;98990.20;1646159;86;20168;-68
2022/08/23 06:11:09;;;;;;;;;;;;;;;31.07;40.13;98994.33;1646453;86;21189;-67
2022/08/23 06:13:42;;;;;;;;;;;;;;;30.94;40.38;98994.41;1645756;85;20096;-68
2022/08/23 06:16:10;;;;;;;;;;;;;;;30.86;40.87;98998.70;1647637;85;20146;-67
2022/08/23 06:18:37;;;;;;;;;;;;;;;30.79;40.58;98998.90;1647509;86;20937;-69
2022/08/23 06:21:12;;;;;;;;;;;;;;;30.72;40.31;98998.52;1626439;87;20262;-69
2022/08/23 06:23:40;;;;;;;;;;;;;;;30.77;40.40;99007.44;1647844;85;21704;-71
2022/08/23 06:26:14;;;;;;;;;;;;;;;30.89;40.31;99003.57;1645813;86;20465;-71
2022/08/23 06:28:43;;;;;;;;;;;;;;;31.05;40.39;98999.30;1646061;86;20183;-69
2022/08/23 06:31:10;;;;;;;;;;;;;;;31.36;40.46;99000.67;1620986;87;21115;-68
2022/08/23 06:33:41;;;;;;;;;;;;;;;31.76;39.57;99004.20;1659618;85;20173;-69
2022/08/23 06:36:13;;;;;;;;;;;;;;;31.97;38.74;99009.90;1644764;86;21822;-69
2022/08/23 06:38:56;;;;;;;;;;;;;;;32.00;38.27;98996.36;1644015;85;20426;-70
2022/08/23 06:41:33;;;;;;;;;;;;;;;32.16;38.47;98999.45;1627735;86;20191;-71
2022/08/23 06:44:02;;;;;;;;;;;;;;;32.48;37.31;98993.46;1642009;85;20609;-70
2022/08/23 06:46:32;;;;;;;;;;;;;;;32.67;36.72;98987.05;1646047;86;20120;-72
2022/08/23 06:48:59;;;;;;;;;;;;;;;32.83;36.12;98988.16;1646460;85;21149;-71
2022/08/23 06:51:39;;;;;;;;;;;;;;;32.95;36.02;98991.06;1648488;85;20091;-71
2022/08/23 06:54:14;;;;;;;;;;;;;;;33.15;35.61;98997.00;1645107;85;20167;-70
2022/08/23 06:56:59;;;;;;;;;;;;;;;33.36;35.45;98984.92;1646404;85;20179;-70
2022/08/23 06:59:30;;;;;;;;;;;;;;;33.60;35.03;98986.30;1661554;86;20464;-66
2022/08/23 07:02:03;;;;;;;;;;;;;;;33.81;34.47;98985.20;1641411;86;21172;-62
2022/08/23 07:04:52;;;;;;;;;;;;;;;34.06;34.58;98984.80;1646319;86;20624;-70
2022/08/23 07:07:19;;;;;;;;;;;;;;;34.37;33.55;98981.61;1658426;85;20105;-68
2022/08/23 07:09:45;;;;;;;;;;;;;;;34.59;33.31;98980.72;1657735;86;20090;-70
2022/08/23 07:12:12;;;;;;;;;;;;;;;34.88;33.49;98981.16;1658110;86;20126;-70
2022/08/23 07:14:41;;;;;;;;;;;;;;;35.32;32.60;98973.98;1657792;86;21126;-71
2022/08/23 07:17:08;;;;;;;;;;;;;;;35.72;32.01;98978.27;1659135;86;20190;-69
2022/08/23 07:19:35;;;;;;;;;;;;;;;36.00;31.66;98976.95;1658421;86;20173;-71
2022/08/23 07:22:03;;;;;;;;;;;;;;;36.18;29.99;98970.82;1657797;86;20154;-69
2022/08/23 07:24:30;;;;;;;;;;;;;;;36.10;29.15;98964.84;1660232;85;20102;-70
2022/08/23 07:26:57;;;;;;;;;;;;;;;36.02;29.38;98968.55;1658009;86;21164;-69
2022/08/23 07:29:23;;;;;;;;;;;;;;;35.96;30.07;98965.76;1657697;86;20133;-69
2022/08/23 07:31:52;;;;;;;;;;;;;;;36.10;30.28;98964.03;1657708;86;20090;-70
2022/08/23 07:34:19;;;;;;;;;;;;;;;36.34;30.24;98965.34;1657649;86;20696;-70
2022/08/23 07:36:46;;;;;;;;;;;;;;;36.63;29.81;98959.48;1658020;86;20153;-70
2022/08/23 07:39:13;;;;;;;;;;;;;;;36.86;29.42;98958.30;1659601;86;21164;-71
2022/08/23 07:41:40;;;;;;;;;;;;;;;37.03;28.99;98957.97;1659525;86;20084;-70
2022/08/23 07:44:08;;;;;;;;;;;;;;;37.25;29.22;98962.09;1660489;86;20148;-70
2022/08/23 07:46:38;;;;;;;;;;;;;;;37.63;28.31;98955.31;1658664;86;20131;-70
2022/08/23 07:49:05;;;;;;;;;;;;;;;37.91;27.75;98954.59;1660408;86;20464;-70
2022/08/23 07:51:33;;;;;;;;;;;;;;;38.13;27.29;98948.92;1659167;85;21179;-70
2022/08/23 07:54:01;;;;;;;;;;;;;;;38.57;27.09;98948.86;1658863;86;20113;-70
2022/08/23 07:56:28;;;;;;;;;;;;;;;39.02;27.00;98952.88;1658402;86;20170;-71
2022/08/23 07:59:03;;;;;;;;;;;;;;;39.52;25.91;98958.71;1651455;85;20137;-70
2022/08/23 08:01:47;;;;;;;;;;;;;;;39.85;25.05;98956.86;1662152;85;20155;-75
2022/08/23 08:04:14;;;;;;;;;;;;;;;39.95;24.56;98963.16;1662767;85;21135;-72
2022/08/23 08:06:46;;;;;;;;;;;;;;;39.93;24.63;98957.17;1658107;85;20101;-71
2022/08/23 08:09:14;;;;;;;;;;;;;;;40.12;25.32;98961.02;1640128;86;20198;-72
2022/08/23 08:11:43;;;;;;;;;;;;;;;40.54;24.85;98958.79;1634111;86;20132;-74
2022/08/23 08:14:09;;;;;;;;;;;;;;;40.78;23.49;98958.84;1650607;85;20176;-72
2022/08/23 08:16:40;;;;;;;;;;;;;;;40.81;23.55;98952.48;1662360;85;21809;-73
2022/08/23 08:19:10;;;;;;;;;;;;;;;41.18;23.60;98957.45;1662181;85;20161;-72
2022/08/23 08:21:44;;;;;;;;;;;;;;;41.69;23.10;98957.48;1655688;85;20221;-71
2022/08/23 08:24:29;;;;;;;;;;;;;;;42.11;22.46;98961.91;1662494;85;20699;-71
2022/08/23 08:26:57;;;;;;;;;;;;;;;42.02;21.99;98960.09;1661753;85;20118;-72
2022/08/23 08:29:24;;;;;;;;;;;;;;;41.19;22.43;98964.05;1662890;85;21139;-71
2022/08/23 08:31:51;;;;;;;;;;;;;;;40.65;22.94;98954.11;1663001;85;20097;-72
2022/08/23 08:34:17;;;;;;;;;;;;;;;40.68;23.16;98956.14;1662838;85;20168;-70
2022/08/23 08:36:46;;;;;;;;;;;;;;;40.59;23.09;98960.64;1662938;85;20150;-70
2022/08/23 08:39:19;;;;;;;;;;;;;;;40.17;23.16;98962.08;1661787;85;20490;-70
2022/08/23 08:42:13;;;;;;;;;;;;;;;39.64;23.63;98956.55;1663067;85;21282;-71
2022/08/23 08:44:45;;;;;;;;;;;;;;;39.36;24.21;98959.67;1662975;85;20147;-73
2022/08/23 08:47:18;;;;;;;;;;;;;;;39.49;24.74;98961.07;1662461;85;20445;-72
2022/08/23 08:50:03;;;;;;;;;;;;;;;39.81;23.97;98960.19;1662312;85;20102;-74
2022/08/23 08:52:39;;;;;;;;;;;;;;;40.03;23.86;98962.66;1662283;85;20451;-73
2022/08/23 08:55:13;;;;;;;;;;;;;;;39.58;23.71;98965.57;1662529;85;21150;-72
2022/08/23 08:57:42;;;;;;;;;;;;;;;39.26;24.24;98957.52;1662330;86;20102;-69
2022/08/23 09:00:21;;;;;;;;;;;;;;;39.29;24.62;98963.70;1662230;85;20232;-75
2022/08/23 09:02:47;;;;;;;;;;;;;;;39.72;24.33;98964.41;1662341;85;20150;-71
2022/08/23 09:05:19;;;;;;;;;;;;;;;40.10;24.11;98963.39;1662602;85;20117;-69
2022/08/23 09:07:58;;;;;;;;;;;;;;;40.23;24.23;98966.15;1662695;85;21226;-75
2022/08/23 09:10:51;;;;;;;;;;;;;;;40.55;23.08;98964.55;1655438;85;20128;-74
2022/08/23 09:13:52;;;;;;;;;;;;;;;40.46;23.40;98967.63;1662960;85;20250;-73
2022/08/23 09:16:43;;;;;;;;;;;;;;;40.14;23.56;98967.02;1663024;86;20186;-74
2022/08/23 09:19:10;;;;;;;;;;;;;;;39.38;24.53;98975.98;1646335;86;20424;-73
2022/08/23 09:21:40;;;;;;;;;;;;;;;39.07;24.96;98967.86;1657879;86;20611;-74
2022/08/23 09:24:07;;;;;;;;;;;;;;;38.53;25.45;98979.95;1688912;83;20439;-73
2022/08/23 09:26:37;;;;;;;;;;;;;;;37.73;26.54;98972.01;1665175;85;20125;-74
2022/08/23 09:29:14;;;;;;;;;;;;;;;37.08;26.89;98977.11;1658745;86;20412;-71
2022/08/23 09:31:42;;;;;;;;;;;;;;;36.56;27.87;98980.61;1659148;86;20126;-75
2022/08/23 09:34:10;;;;;;;;;;;;;;;36.08;28.41;98981.58;1642772;86;21942;-71
2022/08/23 09:36:39;;;;;;;;;;;;;;;35.57;29.32;98980.34;1636001;86;20501;-71
2022/08/23 09:39:08;;;;;;;;;;;;;;;35.06;29.74;98981.22;1657722;86;32502;-71
2022/08/23 09:41:37;;;;;;;;;;;;;;;34.77;30.45;98986.87;1659007;86;20615;-73
2022/08/23 09:44:12;;;;;;;;;;;;;;;34.57;31.03;98982.99;1664658;85;20129;-71
2022/08/23 09:46:43;;;;;;;;;;;;;;;34.38;31.50;98979.09;1653655;86;21230;-72
2022/08/23 09:49:26;;;;;;;;;;;;;;;34.14;31.69;98986.12;1658228;85;20094;-71
2022/08/23 09:51:55;;;;;;;;;;;;;;;34.04;31.86;98979.59;1657515;86;20133;-71
2022/08/23 09:54:24;;;;;;;;;;;;;;;34.07;32.03;98976.77;1655229;86;20097;-72
2022/08/23 09:56:54;;;;;;;;;;;;;;;33.89;32.38;98980.77;1633481;86;20126;-72
2022/08/23 09:59:27;;;;;;;;;;;;;;;33.79;32.68;98987.45;1638361;86;21099;-70
2022/08/23 10:01:59;;;;;;;;;;;;;;;33.78;32.37;98980.34;1639165;86;20128;-71
2022/08/23 10:04:39;;;;;;;;;;;;;;;33.87;32.29;98976.94;1639603;86;20124;-72
2022/08/23 10:07:27;;;;;;;;;;;;;;;33.81;32.08;98978.87;1637614;86;20437;-72
2022/08/23 10:10:13;;;;;;;;;;;;;;;33.70;32.34;98977.07;1661621;84;20130;-68
2022/08/23 10:12:40;;;;;;;;;;;;;;;33.61;31.90;98980.43;1638027;87;21195;-66
2022/08/23 10:15:08;;;;;;;;;;;;;;;33.70;31.61;98977.07;1647746;87;20107;-66
2022/08/23 10:18:01;;;;;;;;;;;;;;;33.81;31.78;98978.30;1648092;87;20115;-71
2022/08/23 10:20:32;;;;;;;;;;;;;;;33.78;32.28;98979.53;1650697;87;20154;-74
2022/08/23 10:23:12;;;;;;;;;;;;;;;33.82;32.05;98975.77;1649478;87;20090;-71
2022/08/23 10:25:47;;;;;;;;;;;;;;;33.90;31.14;98976.27;1650012;85;21159;-73
2022/08/23 10:31:46;;;;;;;;;;;;;;;33.81;30.13;98975.55;1650584;87;20098;-70
2022/08/23 10:34:23;;;;;;;;;;;;;;;33.64;30.26;98983.91;1647844;87;20182;-72
2022/08/23 10:36:56;;;;;;;;;;;;;;;33.53;30.26;98982.63;1647859;87;20086;-77
2022/08/23 10:39:26;;;;;;;;;;;;;;;33.36;30.93;98979.41;1632236;87;21824;-68
2022/08/23 10:42:05;;;;;;;;;;;;;;;33.25;31.34;98974.59;1649144;86;20098;-71
2022/08/23 10:44:35;;;;;;;;;;;;;;;33.21;31.35;98975.02;1651472;87;20158;-70
2022/08/23 10:47:22;;;;;;;;;;;;;;;33.32;30.92;98983.17;1650284;87;20102;-68
2022/08/23 10:49:51;;;;;;;;;;;;;;;33.40;30.50;98983.67;1641068;87;20114;-69
2022/08/23 10:52:21;;;;;;;;;;;;;;;33.41;30.43;98986.12;1649206;86;20511;-70
2022/08/23 10:55:00;;;;;;;;;;;;;;;33.37;30.81;98979.63;1649805;87;20224;-77
2022/08/23 10:57:35;;;;;;;;;;;;;;;33.42;31.19;98980.04;1648139;87;20090;-73
2022/08/23 11:00:05;;;;;;;;;;;;;;;33.47;31.61;98982.04;1605107;85;20090;-73
2022/08/23 11:03:09;;;;;;;;;;;;;;;33.47;30.90;98983.42;1653380;85;20110;-71
2022/08/23 11:05:37;;;;;;;;;;;;;;;33.33;30.83;98980.07;1625866;87;21123;-72
2022/08/23 11:08:13;;;;;;;;;;;;;;;33.41;31.66;98985.30;1656528;85;20106;-70
2022/08/23 11:10:46;;;;;;;;;;;;;;;33.44;30.99;98976.38;1630318;86;20201;-72
2022/08/23 11:13:20;;;;;;;;;;;;;;;33.37;30.90;98985.74;1633348;86;20151;-70
2022/08/23 11:16:01;;;;;;;;;;;;;;;33.27;31.17;98975.09;1657865;85;20078;-72
2022/08/23 11:18:43;;;;;;;;;;;;;;;33.12;31.13;98990.77;1657292;85;22498;-74
2022/08/23 11:21:30;;;;;;;;;;;;;;;32.88;31.31;98986.60;1640005;85;20444;-71
2022/08/23 11:24:01;;;;;;;;;;;;;;;32.75;31.31;98987.60;1658125;85;20126;-70
2022/08/23 11:26:40;;;;;;;;;;;;;;;32.65;31.53;98988.52;1658026;85;20146;-70
2022/08/23 11:29:14;;;;;;;;;;;;;;;32.61;31.90;98991.69;1658241;85;20090;-70
2022/08/23 11:32:00;;;;;;;;;;;;;;;32.46;31.64;98988.04;1658070;86;21790;-70
2022/08/23 11:34:42;;;;;;;;;;;;;;;32.35;31.92;98987.56;1657185;85;20094;-70
2022/08/23 11:37:22;;;;;;;;;;;;;;;32.29;32.52;98988.84;1633023;86;20178;-69
2022/08/23 11:40:00;;;;;;;;;;;;;;;32.29;33.28;98984.72;1657854;85;20954;-70
2022/08/23 11:42:38;;;;;;;;;;;;;;;32.38;32.52;98984.16;1656878;85;20135;-71
2022/08/23 11:45:20;;;;;;;;;;;;;;;32.47;32.50;98986.33;1656109;85;21113;-68
2022/08/23 11:47:50;;;;;;;;;;;;;;;32.53;31.77;98985.63;1655445;85;20102;-69
2022/08/23 11:50:20;;;;;;;;;;;;;;;32.56;31.80;98976.72;1658304;85;20455;-69
2022/08/23 11:53:03;;;;;;;;;;;;;;;32.54;32.17;98988.04;1658381;85;20102;-68
2022/08/23 11:55:49;;;;;;;;;;;;;;;32.50;31.96;98983.48;1656743;85;20130;-62
2022/08/23 11:58:28;;;;;;;;;;;;;;;32.44;31.94;98986.16;1655949;85;21204;-70
2022/08/23 12:01:08;;;;;;;;;;;;;;;32.34;32.19;98983.99;1655817;85;20133;-71
2022/08/23 12:03:55;;;;;;;;;;;;;;;32.30;32.14;98975.34;1633459;85;20174;-71
2022/08/23 12:06:42;;;;;;;;;;;;;;;32.32;32.21;98981.33;1657309;85;20118;-69
2022/08/23 12:09:25;;;;;;;;;;;;;;;32.29;32.26;98984.16;1658241;85;20106;-69
2022/08/23 12:12:00;;;;;;;;;;;;;;;32.23;31.77;98981.88;1658348;85;21175;-70
2022/08/23 12:14:45;;;;;;;;;;;;;;;32.16;31.33;98984.31;1658163;85;20157;-69
2022/08/23 12:17:26;;;;;;;;;;;;;;;32.06;31.58;98991.52;1658778;85;20145;-69
2022/08/23 12:19:55;;;;;;;;;;;;;;;31.92;31.50;98979.80;1659292;85;20466;-70
2022/08/23 12:22:23;;;;;;;;;;;;;;;31.78;31.93;98988.78;1657160;85;20200;-70
2022/08/23 12:24:53;;;;;;;;;;;;;;;31.68;31.59;98992.06;1660702;85;21137;-69
2022/08/23 12:27:44;;;;;;;;;;;;;;;31.54;31.65;98991.95;1659914;85;20078;-69
2022/08/23 12:30:32;;;;;;;;;;;;;;;31.38;32.28;98988.80;1670668;84;20118;-70
2022/08/23 12:33:17;;;;;;;;;;;;;;;31.22;32.60;98993.09;1614448;87;20111;-69
2022/08/23 12:35:56;;;;;;;;;;;;;;;31.13;32.47;98989.52;1641695;86;20112;-69
2022/08/23 12:38:55;;;;;;;;;;;;;;;31.11;32.76;98986.25;1641535;86;21111;-69
2022/08/23 12:41:24;;;;;;;;;;;;;;;31.08;32.48;98998.67;1669959;84;20153;-71
2022/08/23 12:44:03;;;;;;;;;;;;;;;31.05;32.97;99004.80;1641231;86;20064;-68
2022/08/23 12:46:38;;;;;;;;;;;;;;;31.01;33.32;99008.50;1669314;83;20159;-72
2022/08/23 12:49:05;;;;;;;;;;;;;;;30.99;34.07;99005.27;1660584;83;20252;-71
2022/08/23 12:51:41;;;;;;;;;;;;;;;30.96;34.17;98994.34;1671426;83;21246;-71
2022/08/23 12:54:12;;;;;;;;;;;;;;;30.96;34.44;99000.39;1668253;86;20102;-72
2022/08/23 12:56:38;;;;;;;;;;;;;;;31.00;34.88;99002.77;1639487;86;20454;-72
2022/08/23 12:59:06;;;;;;;;;;;;;;;31.03;35.21;99009.80;1667751;86;20157;-71
2022/08/23 13:01:37;;;;;;;;;;;;;;;31.03;35.75;99011.17;1639582;86;20473;-71
2022/08/23 13:04:05;;;;;;;;;;;;;;;31.02;35.54;99012.88;1666531;86;21280;-71
2022/08/23 13:06:38;;;;;;;;;;;;;;;30.94;35.43;99016.38;1651899;86;20104;-71
2022/08/23 13:09:14;;;;;;;;;;;;;;;30.83;35.32;99014.98;1661293;85;20496;-70
2022/08/23 13:11:41;;;;;;;;;;;;;;;30.80;36.47;99015.60;1665861;86;20617;-71
2022/08/23 13:14:41;;;;;;;;;;;;;;;30.80;36.55;99015.05;1621493;86;20166;-70
2022/08/23 13:17:29;;;;;;;;;;;;;;;30.81;37.13;99014.49;1665489;86;21238;-70
2022/08/23 13:20:09;;;;;;;;;;;;;;;30.84;35.83;99015.24;1665846;86;20443;-69
2022/08/23 13:22:37;;;;;;;;;;;;;;;30.85;36.21;99016.29;1664505;85;20102;-70